Detall de PIREP

Printer-friendly versionPDF version

[2012/04/11 15:36:00]
Flight IATA:CT1004
Pilot Number:042
Company ICAO:CAT
Aircraft Type:B738/F
PAX:150
Departing Airport: LEVC
Destination Airport: DTMB
Alternate Airport:DTTA
Online: VATSIM
Route:NINOT UM134 ANB UA411 LABIP UV334 MAGIM UW254 TISRI UV310 LOBNA
Flight Level:F350
No Slew and time accel
No pause
Crash detect
Detect pilot in Cockpit between each 30 and 45 minutes
15:36 Zero fuel Weight: 91660 Lbs, Fuel Weight: 46056 Lbs
15:36 VATSIM:LEVC 111500Z 25015KT 220V290 CAVOK 23/02 Q1006 NOSIG
15:36 VATSIM:DTMB 111500Z 05012KT 9999 FEW020 21/12 Q1008 NOSIG
15:36 VOICE CATALONIAN/EASTER CHARTER
15:44 Parking Brakes off
15:47 Take-off
15:47 Take off Weight: 137256 Lbs
15:47 Wind: 257º @ 015 Knots Heading: 291º
15:47 POS N39º 29´ 24´´ W000º 29´ 04´´
15:47 Gear Up: 163 Knots
15:47 Flaps:5 at 163 Knots
15:47 Flaps:4 at 163 Knots
15:47 Flaps:3 at 171 Knots
15:47 Flaps:2 at 195 Knots
15:48 Flaps:1 at 229 Knots
15:48 Flaps:0 at 237 Knots
16:02 Wind:211º@040 Knots Heading: 115º Ground Speed: 472 Knots Altitude 31617 ft
16:04 TOC
16:04 Fuel Weight: 42142 Lb
16:17 Wind:246º@026 Knots Heading: 112º Ground Speed: 477 Knots Altitude 34875 ft
16:32 Wind:303º@019 Knots Heading: 110º Ground Speed: 478 Knots Altitude 34911 ft
16:47 Wind:018º@043 Knots Heading: 084º Ground Speed: 442 Knots Altitude 34908 ft
16:53 TOD
16:53 Fuel Weight: 37705 Lb
17:02 Wind:343º@022 Knots Heading: 188º Ground Speed: 380 Knots Altitude 16151 ft
17:07 Flaps:1 at 220 Knots
17:11 Flaps:2 at 197 Knots
17:13 Flaps:3 at 188 Knots
17:15 Flaps:4 at 167 Knots
17:15 Gear Down: 166 Knots
17:15 Flaps:5 at 157 Knots
17:15 Flaps:6 at 141 Knots
17:15 Flaps:7 at 139 Knots
17:15 Flaps:8 at 134 Knots
17:17 Wind:059º@010 Knots Heading: 072º Ground Speed: 128 Knots Altitude 1742 ft
17:19 TouchDown:Rate -329 ft/min Speed: 117 Knots
17:19 VATSIM:DTMB 111630Z 06010KT 9999 FEW020 20/13 Q1009 NOSIG
17:19 Land
17:19 Wind:060º@010 Knots
17:19 Heading: 073º
17:19 Flight Duration: 01:32
17:19 Landing Weight: 128020 Lbs
17:19 POS N35º 45´ 27´´ E010º 45´ 10´´
17:22 Parking brakes on
17:22 Block to Block Duration: 01:38
17:22 Final Fuel: 36144 Lbls
17:22 Spent Fuel: 9911 Lbls
17:22 Flight Length: 631 NM
17:22 TOD Land Length: 129 NM

Exportar CSV

Powered by Drupal - Modified by Danger4k